Time;durP1;ratioP1;P1;durP2;ratioP2;P2;SDS_P1;SDS_P2;PMS_P1;PMS_P2;Temp;Humidity;BMP_temperature;BMP_pressure;BME280_temperature;BME280_humidity;BME280_pressure;Samples;Min_cycle;Max_cycle;Signal;HPM_P1;HPM_P2
2022/12/11 05:32:13;;;;;;;8.07;7.05;;;0.30;83.40;;;;;;5075331;23;20061;-77
2022/12/11 05:34:38;;;;;;;26.48;12.82;;;0.40;83.60;;;;;;4959322;29;20031;-76
2022/12/11 05:37:04;;;;;;;13.30;8.57;;;0.30;83.40;;;;;;4959674;29;20031;-76
2022/12/11 05:39:30;;;;;;;25.35;10.32;;;0.20;83.50;;;;;;4942960;28;20498;-76
2022/12/11 05:41:55;;;;;;;19.35;9.63;;;0.30;83.80;;;;;;4940543;29;20094;-76
2022/12/11 05:44:21;;;;;;;20.23;11.48;;;0.40;83.60;;;;;;4940412;28;20112;-77
2022/12/11 05:47:04;;;;;;;7.57;6.43;;;0.30;83.70;;;;;;4959421;29;20043;-76
2022/12/11 05:49:30;;;;;;;19.67;8.70;;;0.30;83.60;;;;;;4957738;29;20031;-76
2022/12/11 05:51:56;;;;;;;10.82;8.23;;;0.30;83.80;;;;;;4959709;29;20020;-77
2022/12/11 05:54:21;;;;;;;21.23;11.82;;;0.30;83.90;;;;;;4950788;28;20111;-76
2022/12/11 05:56:48;;;;;;;17.35;9.10;;;0.30;84.00;;;;;;4922867;29;20043;-76
2022/12/11 05:59:14;;;;;;;17.63;7.50;;;0.20;84.00;;;;;;4941673;29;20034;-77
2022/12/11 06:01:41;;;;;;;26.50;12.00;;;0.30;84.00;;;;;;4941537;29;20391;-76
2022/12/11 06:04:09;;;;;;;20.90;10.90;;;0.30;84.10;;;;;;4957345;29;20027;-76
2022/12/11 06:06:35;;;;;;;19.80;10.88;;;0.30;83.90;;;;;;4959013;28;20102;-76
2022/12/11 06:09:03;;;;;;;16.75;9.30;;;0.20;84.20;;;;;;4959198;28;20031;-77
2022/12/11 06:11:31;;;;;;;26.23;13.57;;;0.30;84.10;;;;;;4941954;29;20030;-78
2022/12/11 06:13:57;;;;;;;22.08;11.85;;;0.40;84.10;;;;;;4958831;28;20049;-78
2022/12/11 06:16:23;;;;;;;9.05;6.30;;;0.30;84.00;;;;;;4959519;29;20118;-78
2022/12/11 06:18:49;;;;;;;12.10;7.63;;;0.20;84.20;;;;;;4958713;28;20027;-76
2022/12/11 06:21:28;;;;;;;12.25;7.63;;;0.30;84.30;;;;;;4958817;29;20027;-78
2022/12/11 06:23:56;;;;;;;14.63;8.50;;;0.30;84.40;;;;;;4971540;28;20034;-79
2022/12/11 06:26:22;;;;;;;8.38;6.93;;;0.30;84.30;;;;;;4961261;28;20058;-80
2022/12/11 06:28:48;;;;;;;13.25;8.98;;;0.30;84.40;;;;;;4975952;28;20027;-78
2022/12/11 06:31:14;;;;;;;25.20;14.07;;;0.30;84.70;;;;;;4942033;29;20058;-79
2022/12/11 06:33:40;;;;;;;15.75;7.75;;;0.30;84.30;;;;;;4941474;29;20035;-79
2022/12/11 06:36:14;;;;;;;26.48;12.02;;;0.40;84.30;;;;;;4941458;29;20022;-77
2022/12/11 06:38:40;;;;;;;24.02;11.93;;;0.50;84.00;;;;;;4956272;28;21821;-79
2022/12/11 06:41:07;;;;;;;18.48;10.60;;;0.50;84.10;;;;;;4950203;29;20086;-81
2022/12/11 06:43:34;;;;;;;14.05;9.25;;;0.50;84.10;;;;;;4939452;29;20131;-76
2022/12/11 06:46:04;;;;;;;9.55;8.02;;;0.60;84.10;;;;;;4939617;29;20099;-77
2022/12/11 06:48:29;;;;;;;20.27;8.93;;;0.70;83.50;;;;;;4939809;28;20451;-76
2022/12/11 06:50:55;;;;;;;28.58;14.38;;;0.70;83.60;;;;;;4939090;29;20036;-87
2022/12/11 06:53:21;;;;;;;30.88;13.55;;;0.70;83.30;;;;;;4938650;29;20032;-88
2022/12/11 06:55:46;;;;;;;23.58;11.88;;;0.70;83.60;;;;;;4929333;29;20040;-87
2022/12/11 06:58:12;;;;;;;13.75;9.77;;;0.60;83.50;;;;;;4940473;29;20118;-86
2022/12/11 07:00:40;;;;;;;27.67;11.68;;;0.70;83.50;;;;;;4924886;29;20024;-81
2022/12/11 07:03:06;;;;;;;22.38;12.35;;;0.70;83.60;;;;;;4951953;28;20082;-83
2022/12/11 07:05:32;;;;;;;27.15;13.82;;;0.60;83.80;;;;;;4957847;29;20023;-91
2022/12/11 07:07:58;;;;;;;17.83;13.23;;;0.60;83.80;;;;;;4941383;29;20069;-85
2022/12/11 07:10:24;;;;;;;19.63;8.43;;;0.60;83.60;;;;;;4951755;28;20027;-85
2022/12/11 07:12:52;;;;;;;11.80;8.05;;;0.70;83.80;;;;;;4939517;29;20040;-85
2022/12/11 07:15:18;;;;;;;11.85;8.18;;;0.70;83.40;;;;;;4951133;29;20106;-88
2022/12/11 07:17:53;;;;;;;15.75;8.05;;;0.70;83.40;;;;;;4950770;28;20057;-88
2022/12/11 07:20:19;;;;;;;20.15;9.38;;;0.70;83.70;;;;;;4958600;29;20463;-86
2022/12/11 07:22:44;;;;;;;17.73;10.35;;;0.70;83.40;;;;;;4938727;29;20119;-86
2022/12/11 07:25:10;;;;;;;17.77;11.23;;;0.80;83.70;;;;;;4961220;29;20034;-87
2022/12/11 07:27:35;;;;;;;8.90;6.82;;;0.80;83.30;;;;;;4957834;29;20038;-86
2022/12/11 07:30:01;;;;;;;15.57;11.10;;;0.80;83.10;;;;;;4959432;29;20167;-84
2022/12/11 07:32:27;;;;;;;12.45;8.43;;;0.80;83.60;;;;;;4955284;28;20134;-87
2022/12/11 07:34:56;;;;;;;20.95;11.93;;;0.80;83.40;;;;;;4941223;29;20379;-86
2022/12/11 07:37:21;;;;;;;14.43;9.18;;;0.70;83.60;;;;;;4959455;28;20057;-88
2022/12/11 07:39:47;;;;;;;16.15;10.68;;;0.70;83.60;;;;;;4940804;29;20071;-87
2022/12/11 07:42:13;;;;;;;23.25;11.93;;;0.80;83.60;;;;;;4960828;28;20034;-87
2022/12/11 07:44:39;;;;;;;26.73;13.90;;;0.80;83.60;;;;;;4940492;29;20455;-88
2022/12/11 07:47:04;;;;;;;13.68;7.13;;;0.80;83.70;;;;;;4944163;29;20457;-87
2022/12/11 07:49:30;;;;;;;20.85;10.95;;;0.80;83.50;;;;;;4939719;29;20079;-87
2022/12/11 07:52:00;;;;;;;14.88;9.25;;;0.80;83.40;;;;;;4958085;29;20039;-87
2022/12/11 07:54:26;;;;;;;20.30;11.40;;;0.80;83.40;;;;;;4937968;29;20034;-87
2022/12/11 07:56:51;;;;;;;28.20;10.25;;;0.90;83.60;;;;;;4940129;29;20697;-87
2022/12/11 07:59:17;;;;;;;21.80;10.88;;;0.90;83.50;;;;;;4943671;29;20390;-88
2022/12/11 08:01:43;;;;;;;20.42;11.38;;;0.90;83.40;;;;;;4955792;29;20035;-88
2022/12/11 08:04:10;;;;;;;15.13;10.90;;;1.00;83.50;;;;;;4961280;29;20055;-88
2022/12/11 08:06:38;;;;;;;20.55;13.07;;;1.10;83.10;;;;;;4957722;29;20030;-89
2022/12/11 08:09:13;;;;;;;16.10;9.48;;;1.10;82.80;;;;;;4957292;28;20035;-79
2022/12/11 08:11:39;;;;;;;10.68;7.28;;;1.00;83.00;;;;;;4956759;29;20027;-85
2022/12/11 08:14:25;;;;;;;15.13;9.68;;;0.80;83.60;;;;;;4956999;28;20078;-83
2022/12/11 08:16:51;;;;;;;14.90;10.32;;;0.80;83.70;;;;;;4957070;29;20031;-78
2022/12/11 08:19:16;;;;;;;14.60;11.20;;;0.90;84.00;;;;;;4940044;29;20402;-84
2022/12/11 08:21:43;;;;;;;20.98;11.27;;;1.00;83.70;;;;;;4934835;29;20035;-76
2022/12/11 08:24:09;;;;;;;11.50;8.32;;;1.00;83.60;;;;;;4966361;28;20054;-79
2022/12/11 08:26:35;;;;;;;28.15;13.48;;;1.00;83.60;;;;;;4960875;28;20027;-79
2022/12/11 08:29:01;;;;;;;16.15;9.25;;;0.90;83.80;;;;;;4957875;28;20035;-82
2022/12/11 08:31:28;;;;;;;14.27;9.48;;;0.90;83.80;;;;;;4933419;29;20043;-77
2022/12/11 08:33:55;;;;;;;36.45;16.40;;;0.90;83.70;;;;;;4958732;29;20723;-77
2022/12/11 08:36:22;;;;;;;15.15;9.70;;;0.90;83.70;;;;;;4947733;29;20032;-78
2022/12/11 08:38:48;;;;;;;19.02;9.10;;;1.00;83.90;;;;;;4946685;28;20059;-77
2022/12/11 08:41:15;;;;;;;20.23;12.30;;;1.10;83.70;;;;;;4960951;29;20055;-76
2022/12/11 08:43:42;;;;;;;15.13;8.90;;;1.10;83.40;;;;;;4943780;29;20031;-76
2022/12/11 08:46:08;;;;;;;27.60;11.98;;;1.10;83.40;;;;;;4939501;29;20066;-76
2022/12/11 08:48:35;;;;;;;15.70;10.48;;;1.10;83.70;;;;;;4940450;29;20032;-77
2022/12/11 08:51:03;;;;;;;13.02;9.90;;;1.20;83.60;;;;;;4941723;29;20035;-76
2022/12/11 08:53:29;;;;;;;15.90;11.45;;;1.20;83.40;;;;;;4943392;29;20110;-77
2022/12/11 08:56:08;;;;;;;16.52;8.95;;;1.30;83.00;;;;;;4942905;29;20035;-76
2022/12/11 08:58:35;;;;;;;22.15;10.68;;;1.20;82.90;;;;;;4959584;29;20503;-77
2022/12/11 09:01:09;;;;;;;19.05;10.00;;;1.30;82.90;;;;;;4950498;28;20034;-77
2022/12/11 09:03:35;;;;;;;19.48;11.15;;;1.30;82.80;;;;;;4967399;28;20074;-77
2022/12/11 09:06:10;;;;;;;18.35;10.38;;;1.40;82.70;;;;;;4941624;29;20114;-77
2022/12/11 09:08:36;;;;;;;19.10;9.77;;;1.30;82.80;;;;;;4956533;28;20577;-77
2022/12/11 09:11:10;;;;;;;22.35;12.27;;;1.20;82.70;;;;;;4959138;28;20024;-77
2022/12/11 09:13:36;;;;;;;26.50;12.75;;;1.20;83.10;;;;;;4973097;28;20513;-76
2022/12/11 09:16:11;;;;;;;23.40;9.70;;;1.30;82.80;;;;;;4944866;29;20031;-76
2022/12/11 09:18:38;;;;;;;24.33;10.82;;;1.30;82.70;;;;;;4939787;29;20462;-77
2022/12/11 09:21:07;;;;;;;23.48;12.48;;;1.30;82.70;;;;;;4956756;28;20059;-76
2022/12/11 09:23:33;;;;;;;18.88;11.23;;;1.40;82.60;;;;;;4948574;28;20027;-76
2022/12/11 09:25:59;;;;;;;17.20;11.35;;;1.40;82.50;;;;;;4966785;28;20086;-76
2022/12/11 09:28:25;;;;;;;13.50;8.55;;;1.50;82.30;;;;;;4958034;28;20536;-76
2022/12/11 09:30:51;;;;;;;11.73;8.82;;;1.60;82.50;;;;;;4956151;28;20047;-76
2022/12/11 09:33:17;;;;;;;21.02;11.73;;;1.50;82.40;;;;;;4964397;28;20065;-76
2022/12/11 09:35:43;;;;;;;23.02;13.30;;;1.50;82.30;;;;;;4940996;28;20031;-76
2022/12/11 09:38:09;;;;;;;19.27;11.57;;;1.50;82.70;;;;;;4940536;29;20039;-76
2022/12/11 09:40:40;;;;;;;22.40;12.40;;;1.60;82.40;;;;;;4955005;28;20038;-76
2022/12/11 09:43:31;;;;;;;19.08;10.43;;;1.80;82.30;;;;;;4942760;28;20165;-76
2022/12/11 09:46:01;;;;;;;24.98;12.95;;;1.90;81.60;;;;;;4956237;28;20098;-80
2022/12/11 09:48:29;;;;;;;15.73;9.32;;;1.90;81.70;;;;;;4960810;28;20119;-81
2022/12/11 09:50:56;;;;;;;20.40;12.85;;;1.90;81.80;;;;;;4957941;28;20023;-77
2022/12/11 09:53:35;;;;;;;20.80;9.32;;;1.90;81.80;;;;;;4940950;29;20549;-79
2022/12/11 09:56:16;;;;;;;24.90;13.52;;;1.80;81.70;;;;;;4951111;28;20030;-77
2022/12/11 09:59:03;;;;;;;22.95;11.80;;;1.90;82.00;;;;;;4929742;28;20035;-79
2022/12/11 10:01:51;;;;;;;19.63;10.57;;;1.80;82.00;;;;;;4975084;28;20549;-79
2022/12/11 10:04:28;;;;;;;18.33;10.82;;;1.70;82.20;;;;;;4943270;29;20395;-79
2022/12/11 10:07:08;;;;;;;23.90;11.77;;;1.80;82.40;;;;;;4963244;28;20031;-79
2022/12/11 10:10:11;;;;;;;21.33;9.88;;;1.90;81.80;;;;;;4957343;28;20042;-79
2022/12/11 10:12:55;;;;;;;29.27;11.57;;;1.90;81.60;;;;;;4954610;28;20103;-79
2022/12/11 10:15:50;;;;;;;20.13;11.45;;;2.00;81.80;;;;;;4958059;29;20605;-79
2022/12/11 10:18:21;;;;;;;19.05;8.45;;;2.00;81.70;;;;;;4955300;28;20663;-79
2022/12/11 10:20:49;;;;;;;25.88;15.75;;;1.90;81.40;;;;;;4940527;28;20891;-78
2022/12/11 10:23:18;;;;;;;24.40;11.98;;;1.90;82.10;;;;;;4963611;28;20027;-79
2022/12/11 10:26:11;;;;;;;22.00;10.95;;;2.00;82.10;;;;;;4971708;28;20020;-79
2022/12/11 10:28:37;;;;;;;22.55;11.50;;;2.00;81.70;;;;;;4956204;28;20099;-79
2022/12/11 10:31:17;;;;;;;24.60;12.63;;;2.00;81.80;;;;;;4927851;28;20513;-79
2022/12/11 10:34:12;;;;;;;17.98;10.32;;;2.00;82.00;;;;;;4956646;29;20051;-79
2022/12/11 10:36:41;;;;;;;19.92;12.15;;;2.00;81.90;;;;;;4927176;29;20487;-79
2022/12/11 10:39:18;;;;;;;24.02;12.80;;;2.20;81.80;;;;;;4956007;28;20066;-79
2022/12/11 10:41:57;;;;;;;18.00;11.60;;;2.20;81.30;;;;;;4918506;28;20311;-79
2022/12/11 10:44:28;;;;;;;24.33;13.15;;;2.20;81.70;;;;;;4956876;28;20169;-80
2022/12/11 10:47:02;;;;;;;25.50;14.20;;;2.20;81.40;;;;;;4969508;28;20061;-81
2022/12/11 10:49:30;;;;;;;16.48;9.35;;;2.20;81.60;;;;;;4955399;29;20483;-79
2022/12/11 10:52:00;;;;;;;17.77;10.30;;;2.20;81.50;;;;;;4956873;28;20082;-80
2022/12/11 10:54:38;;;;;;;30.60;17.53;;;2.30;81.40;;;;;;4953146;28;20095;-79
2022/12/11 10:57:06;;;;;;;19.88;10.23;;;2.30;81.40;;;;;;4939220;28;20031;-79
2022/12/11 10:59:49;;;;;;;32.92;14.25;;;2.30;81.30;;;;;;4924006;28;20495;-80
2022/12/11 11:02:21;;;;;;;23.40;13.63;;;2.50;81.30;;;;;;4939831;28;20139;-79
2022/12/11 11:04:48;;;;;;;19.75;12.05;;;2.50;80.90;;;;;;4938394;28;20023;-79
2022/12/11 11:07:24;;;;;;;20.70;10.85;;;2.50;80.80;;;;;;4967116;28;20486;-79
2022/12/11 11:10:02;;;;;;;15.60;9.98;;;2.50;81.10;;;;;;4938613;28;20035;-79
2022/12/11 11:12:28;;;;;;;17.50;10.20;;;2.50;80.60;;;;;;4931482;28;20650;-79
2022/12/11 11:15:16;;;;;;;18.92;10.85;;;2.60;80.60;;;;;;4970515;28;20034;-80
2022/12/11 11:17:53;;;;;;;26.23;12.95;;;2.70;80.70;;;;;;4951454;28;20093;-79
2022/12/11 11:20:22;;;;;;;30.52;14.73;;;2.70;80.30;;;;;;4945890;28;20570;-80
2022/12/11 11:22:51;;;;;;;28.38;14.27;;;2.70;80.40;;;;;;4952270;28;20403;-78
2022/12/11 11:25:20;;;;;;;22.05;13.32;;;2.90;80.60;;;;;;4936976;28;20113;-78
2022/12/11 11:28:05;;;;;;;27.63;12.60;;;3.00;80.40;;;;;;4917994;28;20031;-83
2022/12/11 11:30:38;;;;;;;18.08;8.80;;;3.00;80.20;;;;;;4949125;28;20458;-78
2022/12/11 11:33:18;;;;;;;23.17;12.60;;;3.10;80.20;;;;;;4933615;29;20023;-81
2022/12/11 11:35:56;;;;;;;24.50;14.30;;;3.20;80.00;;;;;;4954122;28;20034;-81
2022/12/11 11:38:26;;;;;;;28.92;13.25;;;3.20;79.60;;;;;;4937478;29;20036;-79
2022/12/11 11:41:34;;;;;;;29.38;13.52;;;3.10;79.40;;;;;;4951326;28;20037;-76
2022/12/11 11:44:04;;;;;;;28.50;11.32;;;3.10;79.90;;;;;;4923886;28;20900;-79
2022/12/11 11:46:36;;;;;;;24.63;10.00;;;3.00;79.80;;;;;;4943607;28;20034;-79
2022/12/11 11:49:33;;;;;;;27.20;13.30;;;3.00;80.10;;;;;;4938635;29;20059;-79
2022/12/11 11:52:19;;;;;;;27.27;12.15;;;3.20;80.20;;;;;;4956590;28;20038;-81
2022/12/11 11:55:10;;;;;;;25.85;12.77;;;3.30;79.50;;;;;;4945069;28;20427;-77
2022/12/11 11:57:57;;;;;;;25.20;12.50;;;3.30;79.40;;;;;;4938255;29;20031;-79
2022/12/11 12:00:26;;;;;;;28.42;13.40;;;3.30;79.40;;;;;;4937216;29;20413;-79
2022/12/11 12:02:58;;;;;;;20.30;11.52;;;3.20;79.50;;;;;;4955825;28;20422;-81
2022/12/11 12:05:51;;;;;;;21.20;12.77;;;3.20;79.60;;;;;;4933424;29;20030;-79
2022/12/11 12:08:23;;;;;;;22.30;10.32;;;3.20;79.80;;;;;;4952308;28;20042;-84
2022/12/11 12:11:16;;;;;;;15.90;10.32;;;3.20;79.20;;;;;;4955289;28;20138;-82
2022/12/11 12:13:53;;;;;;;21.35;11.15;;;3.20;79.40;;;;;;4955781;28;20039;-81
2022/12/11 12:16:44;;;;;;;20.85;9.48;;;3.20;79.20;;;;;;4934808;28;20148;-81
2022/12/11 12:19:48;;;;;;;20.58;11.50;;;3.20;79.90;;;;;;4951793;28;20042;-78
2022/12/11 12:22:40;;;;;;;20.50;10.70;;;3.10;79.60;;;;;;4952432;28;20085;-81
2022/12/11 12:25:06;;;;;;;21.45;10.38;;;3.00;79.60;;;;;;4918536;29;20063;-78
2022/12/11 12:27:58;;;;;;;15.38;9.13;;;3.00;80.30;;;;;;4927262;28;20031;-79
2022/12/11 12:30:29;;;;;;;15.90;9.98;;;3.20;80.30;;;;;;4939463;28;20047;-77
2022/12/11 12:33:11;;;;;;;17.95;8.93;;;3.10;79.60;;;;;;4956059;28;20081;-78
2022/12/11 12:36:03;;;;;;;14.43;8.70;;;3.10;80.30;;;;;;4954206;28;20039;-76
2022/12/11 12:38:51;;;;;;;19.42;12.32;;;3.30;80.20;;;;;;4955179;28;20398;-80
2022/12/11 12:41:32;;;;;;;20.45;11.95;;;3.30;80.00;;;;;;4947139;28;20115;-81
2022/12/11 12:44:16;;;;;;;23.48;13.82;;;3.50;79.90;;;;;;4954526;28;20424;-76
2022/12/11 12:46:52;;;;;;;21.70;12.25;;;3.50;79.60;;;;;;4953918;28;20486;-79
2022/12/11 12:49:33;;;;;;;19.23;10.48;;;3.50;79.40;;;;;;4938648;29;20057;-81
2022/12/11 12:52:00;;;;;;;20.80;11.05;;;3.60;79.20;;;;;;4955243;28;20042;-82
2022/12/11 12:54:29;;;;;;;23.48;11.77;;;3.70;79.50;;;;;;4946670;28;20377;-81
2022/12/11 12:56:56;;;;;;;12.00;6.43;;;3.80;78.70;;;;;;4952654;29;20031;-80
2022/12/11 12:59:26;;;;;;;15.73;7.55;;;3.70;78.10;;;;;;4938218;29;20031;-82
2022/12/11 13:02:01;;;;;;;22.73;12.38;;;3.60;78.70;;;;;;4945526;29;20589;-81
2022/12/11 13:04:39;;;;;;;24.40;12.35;;;3.70;79.10;;;;;;4932012;28;20045;-81
2022/12/11 13:07:31;;;;;;;20.83;10.93;;;3.70;78.90;;;;;;4952822;28;20031;-82
2022/12/11 13:10:24;;;;;;;17.75;10.90;;;3.80;79.00;;;;;;4951072;28;20039;-82
2022/12/11 13:12:50;;;;;;;26.38;11.00;;;3.80;78.90;;;;;;4936289;28;20039;-82
2022/12/11 13:15:42;;;;;;;15.35;9.45;;;3.80;78.50;;;;;;4954031;28;20031;-82
2022/12/11 13:18:34;;;;;;;14.50;7.82;;;3.80;78.10;;;;;;4953965;28;20041;-82
2022/12/11 13:21:01;;;;;;;19.67;10.32;;;3.70;78.80;;;;;;4955618;28;20047;-82
2022/12/11 13:23:27;;;;;;;15.18;7.93;;;3.80;79.10;;;;;;4944209;29;20121;-89
2022/12/11 13:25:57;;;;;;;18.25;10.70;;;3.80;78.80;;;;;;4941057;28;20027;-82
2022/12/11 13:28:37;;;;;;;11.37;6.83;;;3.80;78.90;;;;;;4935458;28;20035;-82
2022/12/11 13:31:30;;;;;;;15.07;7.95;;;3.80;78.50;;;;;;4957904;29;20055;-83
2022/12/11 13:33:57;;;;;;;13.00;7.00;;;3.80;79.20;;;;;;4948941;28;20043;-82
2022/12/11 13:36:36;;;;;;;16.65;9.70;;;3.90;78.70;;;;;;4957006;28;20042;-82
2022/12/11 13:39:14;;;;;;;14.93;7.43;;;3.80;78.70;;;;;;4949634;28;20033;-81
2022/12/11 13:41:46;;;;;;;8.18;6.75;;;3.80;78.50;;;;;;4959138;29;20023;-81
2022/12/11 13:44:26;;;;;;;14.00;8.70;;;3.80;78.60;;;;;;4956801;28;20023;-82
2022/12/11 13:46:53;;;;;;;;;;;3.70;78.60;;;;;;4959931;29;20031;-82
2022/12/11 13:49:28;;;;;;;12.45;5.93;;;3.70;78.80;;;;;;4954746;28;20370;-83
2022/12/11 13:51:59;;;;;;;16.15;8.77;;;3.70;79.20;;;;;;4941342;28;20103;-80
2022/12/11 13:54:27;;;;;;;;;;;3.80;79.10;;;;;;4954687;28;20035;-79
2022/12/11 13:56:59;;;;;;;10.88;7.20;;;3.90;79.30;;;;;;4942108;29;19914;-79
2022/12/11 13:59:32;;;;;;;13.82;8.10;;;3.80;79.00;;;;;;4952222;28;20559;-79
2022/12/11 14:02:05;;;;;;;14.93;10.23;;;3.80;79.10;;;;;;4933636;29;20027;-79
2022/12/11 14:04:32;;;;;;;23.20;12.50;;;3.80;79.10;;;;;;4957700;28;20039;-79
2022/12/11 14:06:58;;;;;;;15.20;9.93;;;3.80;79.10;;;;;;4957030;28;20094;-80
2022/12/11 14:09:26;;;;;;;20.13;10.48;;;3.80;79.50;;;;;;4958134;28;20039;-80
2022/12/11 14:11:54;;;;;;;16.38;8.93;;;3.90;78.90;;;;;;4958916;28;20089;-80
2022/12/11 14:14:31;;;;;;;19.13;11.30;;;4.00;78.90;;;;;;4936478;29;20071;-79
2022/12/11 14:16:57;;;;;;;17.27;9.77;;;4.00;78.50;;;;;;4957887;28;20612;-80
2022/12/11 14:19:24;;;;;;;17.83;9.50;;;4.10;78.40;;;;;;4945863;28;20114;-79
2022/12/11 14:22:04;;;;;;;11.27;7.53;;;4.20;78.50;;;;;;4957161;28;20507;-79
2022/12/11 14:24:30;;;;;;;14.20;8.13;;;4.20;78.20;;;;;;4971195;28;20118;-79
2022/12/11 14:26:57;;;;;;;18.30;9.20;;;4.20;78.50;;;;;;4956038;28;20042;-79
2022/12/11 14:29:29;;;;;;;15.75;8.55;;;4.20;77.90;;;;;;4944491;29;20509;-79
2022/12/11 14:31:59;;;;;;;15.35;10.32;;;4.20;78.10;;;;;;4935901;28;20070;-80
2022/12/11 14:34:40;;;;;;;21.52;10.18;;;4.10;77.80;;;;;;4956136;29;20039;-80
2022/12/11 14:37:06;;;;;;;16.63;9.35;;;4.00;78.10;;;;;;4958607;28;20043;-80
2022/12/11 14:39:43;;;;;;;16.23;10.05;;;3.90;78.70;;;;;;4953894;28;20105;-80
2022/12/11 14:42:20;;;;;;;14.88;9.02;;;3.90;78.60;;;;;;4958486;28;20030;-79
2022/12/11 14:45:01;;;;;;;9.02;5.95;;;3.80;78.90;;;;;;4950885;28;20027;-81
2022/12/11 14:47:33;;;;;;;23.67;9.23;;;3.80;79.10;;;;;;4954797;28;20042;-79
2022/12/11 14:50:17;;;;;;;14.90;8.77;;;3.80;79.10;;;;;;4957555;28;20510;-79
2022/12/11 14:52:52;;;;;;;18.25;9.23;;;3.90;79.10;;;;;;4940121;28;20034;-81
2022/12/11 14:55:34;;;;;;;14.05;9.63;;;3.80;79.10;;;;;;4951969;28;20045;-79
2022/12/11 14:58:03;;;;;;;18.40;9.73;;;3.90;79.30;;;;;;4936886;29;20380;-79
2022/12/11 15:00:34;;;;;;;17.27;10.07;;;3.90;79.20;;;;;;4957087;28;20034;-79
2022/12/11 15:03:22;;;;;;;14.65;8.52;;;3.80;79.20;;;;;;4955940;28;20345;-78
2022/12/11 15:05:56;;;;;;;15.13;9.65;;;3.80;79.40;;;;;;4955757;28;20028;-78
2022/12/11 15:08:30;;;;;;;18.33;9.05;;;3.80;79.30;;;;;;4951867;28;20038;-79
2022/12/11 15:11:09;;;;;;;12.25;8.20;;;3.80;79.30;;;;;;4956280;28;20035;-79
2022/12/11 15:13:46;;;;;;;17.45;9.60;;;3.80;79.40;;;;;;4954915;28;20435;-79
2022/12/11 15:16:13;;;;;;;22.67;9.48;;;3.80;79.40;;;;;;4957629;28;20487;-79
2022/12/11 15:18:41;;;;;;;18.27;11.07;;;3.80;79.70;;;;;;4955274;28;20074;-78
2022/12/11 15:21:10;;;;;;;20.02;11.23;;;3.80;79.40;;;;;;4955442;28;20227;-79
2022/12/11 15:23:51;;;;;;;14.25;7.55;;;3.80;79.40;;;;;;4946613;28;20034;-79
2022/12/11 15:26:18;;;;;;;16.35;8.60;;;3.70;79.30;;;;;;4938992;29;20045;-79
2022/12/11 15:28:43;;;;;;;22.85;10.05;;;3.70;79.30;;;;;;4938468;29;20031;-79
2022/12/11 15:31:31;;;;;;;17.63;10.68;;;3.70;79.30;;;;;;4936279;29;20062;-79
2022/12/11 15:33:57;;;;;;;15.70;8.77;;;3.70;79.30;;;;;;4932212;28;20528;-79
2022/12/11 15:36:32;;;;;;;13.77;8.73;;;3.70;79.20;;;;;;4975891;28;20031;-79
2022/12/11 15:38:57;;;;;;;10.98;7.93;;;3.70;79.30;;;;;;4961013;28;20085;-79
2022/12/11 15:41:24;;;;;;;9.40;6.18;;;3.70;79.30;;;;;;4953135;28;20114;-78
2022/12/11 15:43:55;;;;;;;14.65;9.48;;;3.60;79.00;;;;;;4953977;28;20074;-78
2022/12/11 15:46:21;;;;;;;16.42;8.90;;;3.70;79.40;;;;;;4956591;28;20027;-79
2022/12/11 15:48:49;;;;;;;19.73;10.50;;;3.70;79.10;;;;;;4939787;29;20509;-84
2022/12/11 15:51:15;;;;;;;12.60;7.97;;;3.70;78.80;;;;;;4957614;28;20031;-76
2022/12/11 15:53:41;;;;;;;12.98;7.47;;;3.70;79.00;;;;;;4935942;29;20030;-85
2022/12/11 15:56:15;;;;;;;18.08;9.77;;;3.60;79.10;;;;;;4939296;29;20403;-81
2022/12/11 15:58:43;;;;;;;23.55;11.25;;;3.60;79.20;;;;;;4949882;28;20075;-84
2022/12/11 16:01:10;;;;;;;18.17;9.43;;;3.50;79.30;;;;;;4946747;29;20043;-83
2022/12/11 16:03:36;;;;;;;15.45;9.18;;;3.50;79.20;;;;;;4943153;28;20047;-80
2022/12/11 16:06:03;;;;;;;20.30;11.50;;;3.40;79.40;;;;;;4958966;28;20423;-81
2022/12/11 16:08:28;;;;;;;14.98;10.18;;;3.30;79.90;;;;;;4918929;28;20037;-79
2022/12/11 16:10:59;;;;;;;17.35;10.27;;;3.30;79.80;;;;;;4929729;29;20043;-81
2022/12/11 16:13:25;;;;;;;18.63;10.48;;;3.30;80.00;;;;;;4955042;28;20068;-77
2022/12/11 16:15:52;;;;;;;16.08;10.70;;;3.30;80.00;;;;;;4954633;28;20039;-77
2022/12/11 16:18:38;;;;;;;15.48;10.00;;;3.30;80.30;;;;;;4936502;29;20030;-77
2022/12/11 16:21:05;;;;;;;20.77;11.90;;;3.30;80.00;;;;;;4947585;28;20087;-78
2022/12/11 16:23:31;;;;;;;21.67;13.38;;;3.40;80.10;;;;;;4954933;28;20015;-78
2022/12/11 16:25:56;;;;;;;22.35;13.25;;;3.30;80.10;;;;;;4951406;28;20031;-77
2022/12/11 16:28:22;;;;;;;21.48;11.50;;;3.30;80.30;;;;;;4953624;28;20034;-76
2022/12/11 16:30:48;;;;;;;31.70;19.35;;;3.30;80.10;;;;;;4954276;28;20066;-74
2022/12/11 16:33:14;;;;;;;29.15;15.10;;;3.30;80.30;;;;;;4951345;28;20055;-75
2022/12/11 16:35:42;;;;;;;27.60;13.77;;;3.30;80.20;;;;;;4954584;28;20067;-75
2022/12/11 16:38:08;;;;;;;23.45;11.52;;;3.30;80.40;;;;;;4955400;28;20019;-76
2022/12/11 16:40:34;;;;;;;22.35;10.93;;;3.30;80.40;;;;;;4953478;28;20059;-75
2022/12/11 16:43:01;;;;;;;22.50;12.57;;;3.30;80.30;;;;;;4954752;28;20050;-75
2022/12/11 16:45:27;;;;;;;21.02;12.07;;;3.30;80.50;;;;;;4955067;28;20031;-76
2022/12/11 16:47:53;;;;;;;19.90;11.32;;;3.30;80.50;;;;;;4937512;28;20569;-76
2022/12/11 16:50:19;;;;;;;25.75;13.48;;;3.30;80.30;;;;;;4960318;28;20070;-75
2022/12/11 16:52:48;;;;;;;19.85;12.70;;;3.30;80.50;;;;;;4960408;28;20090;-75
2022/12/11 16:55:14;;;;;;;15.38;9.68;;;3.30;80.60;;;;;;4954391;29;20045;-76
2022/12/11 16:57:40;;;;;;;20.10;11.60;;;3.40;80.50;;;;;;4943192;29;20154;-75
2022/12/11 17:00:08;;;;;;;26.13;13.45;;;3.40;80.30;;;;;;4955179;28;20054;-75
2022/12/11 17:02:35;;;;;;;22.38;10.85;;;3.40;80.50;;;;;;4958503;28;20039;-79
2022/12/11 17:05:00;;;;;;;23.38;13.00;;;3.40;80.40;;;;;;4953176;28;20035;-79
2022/12/11 17:07:26;;;;;;;19.92;11.32;;;3.50;80.30;;;;;;4940563;29;20045;-79
2022/12/11 17:10:02;;;;;;;20.38;12.18;;;3.40;80.00;;;;;;4929662;28;20162;-78
2022/12/11 17:12:28;;;;;;;18.75;11.40;;;3.40;80.30;;;;;;4938742;29;20035;-79
2022/12/11 17:14:55;;;;;;;29.00;13.13;;;3.40;80.10;;;;;;4940494;29;20031;-80
2022/12/11 17:17:20;;;;;;;21.67;12.18;;;3.20;80.30;;;;;;4958405;28;20038;-80
2022/12/11 17:19:46;;;;;;;19.35;9.88;;;3.30;80.40;;;;;;4957875;28;20035;-80
2022/12/11 17:22:12;;;;;;;19.42;11.75;;;3.30;80.30;;;;;;4953126;28;20019;-85
2022/12/11 17:24:38;;;;;;;21.80;11.55;;;3.20;80.50;;;;;;4945160;29;20078;-82
2022/12/11 17:27:06;;;;;;;17.23;10.23;;;3.20;80.70;;;;;;4946601;28;20027;-79
2022/12/11 17:29:31;;;;;;;25.25;13.35;;;3.20;80.70;;;;;;4936093;29;20117;-82
2022/12/11 17:31:57;;;;;;;23.50;14.32;;;3.20;80.70;;;;;;4953802;28;20098;-79
2022/12/11 17:34:23;;;;;;;22.42;13.25;;;3.20;80.80;;;;;;4933590;28;20038;-80
2022/12/11 17:36:49;;;;;;;30.15;14.25;;;3.20;80.80;;;;;;4955047;28;20036;-79
2022/12/11 17:39:14;;;;;;;22.88;13.45;;;3.20;80.80;;;;;;4939668;28;20035;-85
2022/12/11 17:41:40;;;;;;;23.40;13.50;;;3.30;80.80;;;;;;4956048;28;20071;-80
2022/12/11 17:44:16;;;;;;;;;;;;;;;;;;;;;
2022/12/11 17:46:41;;;;;;;23.15;13.52;;;3.30;80.50;;;;;;4951079;28;20023;-79
2022/12/11 17:49:08;;;;;;;25.02;14.38;;;3.40;80.40;;;;;;4958143;28;20119;-79
2022/12/11 17:51:34;;;;;;;20.63;13.55;;;3.40;80.50;;;;;;4958363;28;20031;-80
2022/12/11 17:53:59;;;;;;;23.58;15.27;;;3.40;80.50;;;;;;4942810;29;20039;-80
2022/12/11 17:56:25;;;;;;;19.90;12.50;;;3.40;80.20;;;;;;4942444;29;20035;-79
2022/12/11 17:58:51;;;;;;;23.50;13.90;;;3.30;80.40;;;;;;4938800;28;20049;-79
2022/12/11 18:01:20;;;;;;;21.73;13.32;;;3.30;80.70;;;;;;4952249;28;20023;-81
2022/12/11 18:03:46;;;;;;;25.40;14.00;;;3.40;80.60;;;;;;4954805;28;20028;-80
2022/12/11 18:06:14;;;;;;;30.65;16.73;;;3.40;80.50;;;;;;4954195;28;20030;-83
2022/12/11 18:08:41;;;;;;;20.52;13.48;;;3.40;80.50;;;;;;4950712;28;20031;-86
2022/12/11 18:11:25;;;;;;;24.10;14.25;;;3.40;80.50;;;;;;4942131;28;20043;-85
2022/12/11 18:13:51;;;;;;;29.75;17.80;;;3.50;80.40;;;;;;4960784;28;20610;-81
2022/12/11 18:16:24;;;;;;;26.52;13.85;;;3.50;80.20;;;;;;4952806;28;20086;-78
2022/12/11 18:18:51;;;;;;;22.27;14.43;;;3.50;80.40;;;;;;4956064;28;20573;-78
2022/12/11 18:21:40;;;;;;;47.45;19.33;;;3.50;80.30;;;;;;4937379;28;20039;-75
2022/12/11 18:24:09;;;;;;;25.70;14.70;;;3.40;80.30;;;;;;4958761;28;20423;-75
2022/12/11 18:26:36;;;;;;;23.85;12.35;;;3.40;80.60;;;;;;4935760;29;20055;-75
2022/12/11 18:29:02;;;;;;;20.58;13.48;;;3.40;80.50;;;;;;4957523;28;20087;-76
2022/12/11 18:31:28;;;;;;;24.23;14.35;;;3.50;80.50;;;;;;4958213;28;20039;-76
2022/12/11 18:33:54;;;;;;;20.60;14.35;;;3.50;80.40;;;;;;4957879;28;20034;-78
2022/12/11 18:36:20;;;;;;;14.93;9.45;;;3.40;80.10;;;;;;4949426;28;20114;-76